Time;durP1;ratioP1;P1;durP2;ratioP2;P2;SDS_P1;SDS_P2;PMS_P1;PMS_P2;Temp;Humidity;BMP_temperature;BMP_pressure;BME280_temperature;BME280_humidity;BME280_pressure;Samples;Min_cycle;Max_cycle;Signal;HPM_P1;HPM_P2
2021/06/25 00:00:08;;;;;;;17.12;5.80;;;;;;;24.54;69.58;100606.03;1765628;81;21343;-55
2021/06/25 00:03:13;;;;;;;8.88;5.62;;;;;;;24.54;69.54;100603.23;1748667;81;21205;-54
2021/06/25 00:06:18;;;;;;;13.45;5.85;;;;;;;24.55;69.45;100597.92;1751713;81;21359;-55
2021/06/25 00:09:24;;;;;;;10.30;5.55;;;;;;;24.57;69.63;100599.05;1765472;81;21225;-54
2021/06/25 00:12:30;;;;;;;13.25;6.25;;;;;;;24.57;69.75;100602.71;1748811;81;21252;-55
2021/06/25 00:15:37;;;;;;;9.63;5.60;;;;;;;24.57;69.67;100598.52;1765495;81;21224;-54
2021/06/25 00:18:42;;;;;;;15.45;6.00;;;;;;;24.58;69.62;100588.14;1748929;81;21253;-55
2021/06/25 00:21:50;;;;;;;17.35;6.35;;;;;;;24.58;69.66;100581.99;1765511;81;21406;-54
2021/06/25 00:24:56;;;;;;;14.70;7.15;;;;;;;24.58;69.73;100580.59;1748802;81;21435;-54
2021/06/25 00:28:01;;;;;;;16.55;6.47;;;;;;;24.60;69.57;100576.13;1765442;81;21375;-54
2021/06/25 00:31:06;;;;;;;11.83;5.53;;;;;;;24.60;69.41;100565.78;1748723;81;21265;-54
2021/06/25 00:34:11;;;;;;;15.00;5.78;;;;;;;24.61;69.30;100570.27;1765622;81;21276;-55
2021/06/25 00:37:17;;;;;;;14.28;6.25;;;;;;;24.61;69.33;100565.24;1749713;82;21221;-55
2021/06/25 00:40:23;;;;;;;11.48;5.62;;;;;;;24.60;69.26;100565.78;1782543;80;21426;-54
2021/06/25 00:43:31;;;;;;;12.73;5.87;;;;;;;24.61;69.31;100568.05;1782524;80;21334;-55
2021/06/25 00:46:38;;;;;;;15.30;6.45;;;;;;;24.61;69.39;100566.06;1782530;80;21370;-55
2021/06/25 00:49:48;;;;;;;13.88;5.85;;;;;;;24.60;69.40;100565.78;1782376;80;22129;-54
2021/06/25 00:52:53;;;;;;;9.33;5.97;;;;;;;24.60;69.62;100563.53;1782693;80;21398;-57
2021/06/25 00:55:59;;;;;;;16.12;5.95;;;;;;;24.58;69.55;100555.39;1782612;80;21224;-54
2021/06/25 00:59:04;;;;;;;15.45;6.45;;;;;;;24.55;69.58;100555.92;1782633;80;21219;-54
2021/06/25 01:02:09;;;;;;;11.53;6.17;;;;;;;24.53;69.72;100555.33;1782671;80;21263;-55
2021/06/25 01:05:15;;;;;;;11.25;6.08;;;;;;;24.51;69.71;100554.77;1782455;80;21370;-54
2021/06/25 01:08:22;;;;;;;11.57;6.08;;;;;;;24.49;69.68;100551.38;1782517;80;21208;-54
2021/06/25 01:11:28;;;;;;;13.65;5.97;;;;;;;24.49;69.59;100547.73;1782564;80;21409;-54
2021/06/25 01:14:33;;;;;;;10.10;5.78;;;;;;;24.48;69.52;100552.47;1782587;80;21441;-53
2021/06/25 01:17:42;;;;;;;14.68;6.78;;;;;;;24.49;69.58;100552.78;1782522;80;21181;-55
2021/06/25 01:20:48;;;;;;;11.20;6.70;;;;;;;24.46;69.55;100553.31;1782493;80;21361;-54
2021/06/25 01:23:54;;;;;;;13.13;6.50;;;;;;;24.42;69.46;100545.70;1782470;80;21414;-55
2021/06/25 01:26:59;;;;;;;13.93;6.28;;;;;;;24.41;69.54;100544.85;1782477;80;21350;-55
2021/06/25 01:30:05;;;;;;;15.30;6.40;;;;;;;24.41;69.74;100544.85;1782556;80;21899;-55
2021/06/25 01:33:15;;;;;;;14.68;6.25;;;;;;;24.42;69.59;100548.50;1782598;80;21323;-56
2021/06/25 01:36:22;;;;;;;10.93;5.62;;;;;;;24.43;69.39;100553.84;1779578;80;21212;-55
2021/06/25 01:39:27;;;;;;;13.10;5.85;;;;;;;24.45;69.17;100559.17;1748778;81;21733;-54
2021/06/25 01:42:33;;;;;;;14.78;5.40;;;;;;;24.46;69.26;100557.51;1765458;81;21467;-55
2021/06/25 01:45:39;;;;;;;11.78;6.03;;;;;;;24.48;69.44;100559.47;1749097;81;21245;-54
2021/06/25 01:48:45;;;;;;;10.45;5.75;;;;;;;24.47;69.43;100549.39;1765689;81;21366;-54
2021/06/25 01:51:56;;;;;;;12.00;5.87;;;;;;;24.48;69.25;100539.88;1748739;81;21375;-54
2021/06/25 01:55:02;;;;;;;13.15;5.92;;;;;;;24.48;69.32;100543.25;1765552;81;21370;-54
2021/06/25 01:58:08;;;;;;;9.68;6.05;;;;;;;24.47;69.08;100546.59;1748694;82;21206;-55
2021/06/25 02:01:19;;;;;;;10.45;6.15;;;;;;;24.47;69.00;100538.20;1765643;81;21668;-55
2021/06/25 02:04:25;;;;;;;;;;;;;;;24.47;68.78;100540.99;1751254;81;21277;-54
2021/06/25 02:07:31;;;;;;;10.43;6.15;;;;;;;24.48;68.25;100527.28;1779539;80;20602;-55
2021/06/25 02:10:37;;;;;;;14.65;6.35;;;;;;;24.48;67.94;100532.05;1779320;80;21243;-55
2021/06/25 02:13:43;;;;;;;11.30;5.70;;;;;;;24.49;67.70;100527.59;1765763;81;21351;-54
2021/06/25 02:16:49;;;;;;;19.75;6.90;;;;;;;24.52;67.71;100531.26;1749104;81;21620;-54
2021/06/25 02:19:54;;;;;;;12.18;6.78;;;;;;;24.53;67.50;100532.94;1765559;81;21457;-54
2021/06/25 02:23:02;;;;;;;18.20;8.10;;;;;;;24.57;67.14;100529.06;1748622;82;21237;-55
2021/06/25 02:26:08;;;;;;;22.55;9.13;;;;;;;24.60;67.12;100529.39;1765533;81;21363;-56
2021/06/25 02:29:16;;;;;;;19.25;7.92;;;;;;;24.63;67.04;100523.26;1748690;81;21229;-56
2021/06/25 02:32:20;;;;;;;14.90;7.22;;;;;;;24.67;66.76;100532.84;1765484;81;21225;-55
2021/06/25 02:35:25;;;;;;;10.03;6.25;;;;;;;24.70;66.46;100533.73;1749464;81;21336;-55
2021/06/25 02:38:31;;;;;;;15.05;5.87;;;;;;;24.72;66.18;100534.30;1759318;81;21241;-55
2021/06/25 02:41:38;;;;;;;13.62;5.20;;;;;;;24.76;66.00;100531.27;1747324;81;21286;-55
2021/06/25 02:44:43;;;;;;;11.57;5.70;;;;;;;24.78;65.97;100528.20;1758447;81;21170;-54
2021/06/25 02:47:48;;;;;;;9.03;5.50;;;;;;;24.78;65.86;100520.62;1747186;82;21212;-55
2021/06/25 02:50:54;;;;;;;11.08;5.78;;;;;;;24.81;65.72;100519.27;1758472;81;21363;-55
2021/06/25 02:54:01;;;;;;;14.83;6.12;;;;;;;24.82;65.55;100507.80;1747098;82;21199;-56
2021/06/25 02:57:06;;;;;;;10.75;5.45;;;;;;;24.86;65.37;100503.92;1758304;81;21327;-57
2021/06/25 03:00:19;;;;;;;12.78;5.67;;;;;;;24.92;65.46;100502.30;1747252;82;21232;-56
2021/06/25 03:03:26;;;;;;;11.35;5.60;;;;;;;24.94;65.19;100498.66;1758296;81;21371;-60
2021/06/25 03:06:32;;;;;;;11.45;5.42;;;;;;;25.00;64.97;100493.95;1744379;82;21223;-58
2021/06/25 03:09:38;;;;;;;12.20;6.67;;;;;;;25.04;64.90;100494.55;1758279;81;21216;-58
2021/06/25 03:12:44;;;;;;;11.75;6.37;;;;;;;25.11;64.93;100496.27;1747084;82;21207;-57
2021/06/25 03:15:49;;;;;;;11.00;5.55;;;;;;;25.18;64.54;100501.11;1758386;81;21256;-58
2021/06/25 03:18:56;;;;;;;9.20;5.65;;;;;;;25.27;64.37;100509.30;1747229;82;21270;-58
2021/06/25 03:22:01;;;;;;;10.80;5.35;;;;;;;25.36;63.96;100509.11;1758199;81;21320;-59
2021/06/25 03:25:07;;;;;;;17.07;5.08;;;;;;;25.43;63.44;100506.38;1746978;82;21248;-58
2021/06/25 03:28:12;;;;;;;10.85;5.60;;;;;;;25.50;62.87;100494.34;1758177;81;21379;-59
2021/06/25 03:31:17;;;;;;;8.55;5.10;;;;;;;25.57;62.82;100483.75;1746832;82;21235;-57
2021/06/25 03:34:24;;;;;;;18.45;5.83;;;;;;;25.66;62.51;100480.71;1758332;81;21493;-59
2021/06/25 03:37:29;;;;;;;11.85;5.40;;;;;;;25.76;62.29;100479.92;1747156;82;21259;-58
2021/06/25 03:40:35;;;;;;;12.47;5.75;;;;;;;25.85;62.00;100473.52;1763724;81;21338;-60
2021/06/25 03:43:40;;;;;;;10.32;5.30;;;;;;;25.93;61.66;100473.55;1749418;81;21261;-59
2021/06/25 03:46:46;;;;;;;7.25;5.15;;;;;;;25.98;61.65;100472.16;1765556;81;21401;-60
2021/06/25 03:49:53;;;;;;;7.65;5.05;;;;;;;26.04;61.40;100468.28;1748656;82;21225;-57
2021/06/25 03:52:58;;;;;;;10.43;5.25;;;;;;;26.08;61.42;100466.64;1765369;81;21348;-57
2021/06/25 03:56:10;;;;;;;6.80;4.87;;;;;;;26.09;61.67;100466.91;1752674;80;21270;-58
2021/06/25 03:59:18;;;;;;;8.53;5.65;;;;;;;26.11;62.13;100468.34;1776941;81;21180;-58
2021/06/25 04:02:23;;;;;;;9.50;5.55;;;;;;;26.17;62.68;100484.63;1776779;81;21215;-58
2021/06/25 04:05:29;;;;;;;11.57;5.70;;;;;;;26.23;63.33;100484.91;1777843;80;21235;-59
2021/06/25 04:08:34;;;;;;;17.42;6.00;;;;;;;26.30;63.51;100489.73;1776747;81;21215;-58
2021/06/25 04:11:40;;;;;;;10.13;5.87;;;;;;;26.33;63.53;100477.94;1776048;81;21345;-59
2021/06/25 04:14:45;;;;;;;12.80;6.50;;;;;;;26.37;63.04;100479.06;1776409;81;21342;-59
2021/06/25 04:17:53;;;;;;;12.78;6.85;;;;;;;26.42;63.23;100471.50;1776694;81;21180;-58
2021/06/25 04:21:00;;;;;;;13.80;6.95;;;;;;;26.43;62.99;100470.95;1776508;81;21243;-58
2021/06/25 04:24:05;;;;;;;10.10;6.30;;;;;;;26.41;63.10;100464.77;1777176;80;21204;-58
2021/06/25 04:27:12;;;;;;;12.82;6.40;;;;;;;26.37;62.66;100460.81;1774901;80;21188;-58
2021/06/25 04:30:20;;;;;;;15.10;5.97;;;;;;;26.33;62.33;100462.50;1776712;81;21717;-59
2021/06/25 04:33:27;;;;;;;12.82;6.42;;;;;;;26.32;62.65;100459.42;1776395;81;21258;-57
2021/06/25 04:36:33;;;;;;;13.72;6.85;;;;;;;26.38;62.76;100461.97;1777256;81;21216;-57
2021/06/25 04:39:39;;;;;;;18.77;7.05;;;;;;;26.44;62.51;100470.67;1777252;80;21208;-59
2021/06/25 04:42:45;;;;;;;13.62;6.97;;;;;;;26.48;62.73;100470.97;1737585;82;21359;-59
2021/06/25 04:45:51;;;;;;;15.80;7.00;;;;;;;26.54;62.69;100464.78;1737211;82;21363;-58
2021/06/25 04:48:57;;;;;;;16.97;6.33;;;;;;;26.60;62.64;100464.52;1737611;82;21378;-59
2021/06/25 04:52:02;;;;;;;17.32;7.80;;;;;;;26.64;62.52;100464.81;1737783;82;21205;-58
2021/06/25 04:55:07;;;;;;;14.75;6.65;;;;;;;26.71;62.36;100465.39;1750266;82;21423;-62
2021/06/25 04:58:12;;;;;;;19.00;7.22;;;;;;;26.80;62.50;100469.36;1736595;82;21860;-56
2021/06/25 05:01:18;;;;;;;13.00;6.50;;;;;;;26.88;62.13;100476.65;1737487;82;21368;-56
2021/06/25 05:04:24;;;;;;;12.63;6.78;;;;;;;26.96;62.61;100472.42;1737342;82;21956;-55
2021/06/25 05:07:29;;;;;;;16.77;6.80;;;;;;;27.06;63.06;100480.87;1737872;82;21272;-56
2021/06/25 05:10:34;;;;;;;9.10;5.83;;;;;;;27.16;62.74;100483.10;1737333;82;21224;-57
2021/06/25 05:13:39;;;;;;;12.45;6.72;;;;;;;27.24;61.80;100485.34;1694180;84;21268;-56
2021/06/25 05:16:45;;;;;;;19.55;6.95;;;;;;;27.33;61.11;100484.25;1737740;81;21359;-57
2021/06/25 05:19:52;;;;;;;8.53;5.90;;;;;;;27.41;61.36;100482.28;1750367;81;21781;-57
2021/06/25 05:23:00;;;;;;;15.15;6.47;;;;;;;27.51;61.62;100491.53;1743796;81;21394;-56
2021/06/25 05:26:06;;;;;;;10.25;6.22;;;;;;;27.63;61.93;100490.67;1761212;80;21211;-56
2021/06/25 05:29:12;;;;;;;10.80;6.08;;;;;;;27.73;61.90;100494.84;1752674;82;21217;-57
2021/06/25 05:32:17;;;;;;;11.95;6.25;;;;;;;27.84;61.25;100490.05;1737187;82;21784;-58
2021/06/25 05:35:22;;;;;;;13.53;6.30;;;;;;;27.93;60.68;100488.36;1763921;81;21229;-57
2021/06/25 05:38:26;;;;;;;19.77;6.70;;;;;;;28.00;60.58;100494.53;1763757;81;21184;-60
2021/06/25 05:41:32;;;;;;;10.30;6.45;;;;;;;28.07;60.79;100494.23;1766735;80;21358;-55
2021/06/25 05:44:36;;;;;;;12.33;6.65;;;;;;;28.14;59.91;100495.59;1736647;80;21344;-56
2021/06/25 05:47:42;;;;;;;9.50;5.97;;;;;;;28.22;59.69;100497.81;1719470;81;21732;-59
2021/06/25 05:50:48;;;;;;;10.80;6.15;;;;;;;28.31;59.55;100495.22;1747689;81;21211;-57
2021/06/25 05:53:53;;;;;;;14.53;6.15;;;;;;;28.40;59.08;100498.55;1748253;81;21224;-58
2021/06/25 05:56:58;;;;;;;14.40;6.53;;;;;;;28.51;58.67;100497.39;1732365;80;21219;-57
2021/06/25 06:00:04;;;;;;;10.32;5.85;;;;;;;28.60;58.09;100493.41;1730872;81;21396;-56
2021/06/25 06:03:10;;;;;;;10.20;6.05;;;;;;;28.69;58.01;100496.72;1732885;81;21749;-57
2021/06/25 06:06:16;;;;;;;10.75;5.60;;;;;;;28.81;57.75;100502.00;1702497;81;21591;-57
2021/06/25 06:09:24;;;;;;;10.18;5.25;;;;;;;28.89;57.94;100504.20;1712675;82;21204;-60
2021/06/25 06:12:28;;;;;;;15.58;5.92;;;;;;;28.94;57.57;100490.04;1738765;80;21224;-57
2021/06/25 06:15:36;;;;;;;10.65;5.60;;;;;;;29.01;57.72;100486.33;1725796;81;21375;-60
2021/06/25 06:18:46;;;;;;;16.67;5.95;;;;;;;29.09;57.96;100487.14;1717340;82;21744;-57
2021/06/25 06:35:17;;;;;;;16.55;5.58;;;;;;;29.35;60.15;100484.94;1722143;81;21816;-58
2021/06/25 06:38:26;;;;;;;12.53;6.25;;;;;;;29.44;59.62;100484.56;1741281;81;21750;-57
2021/06/25 06:41:29;;;;;;;12.68;6.22;;;;;;;29.52;59.55;100493.23;1738392;81;21203;-58
2021/06/25 06:44:34;;;;;;;16.85;5.90;;;;;;;29.59;59.34;100481.00;1777329;79;21223;-57
2021/06/25 06:47:39;;;;;;;12.53;6.10;;;;;;;29.67;59.12;100484.62;1786692;79;21338;-57
2021/06/25 06:50:44;;;;;;;14.45;7.22;;;;;;;29.80;58.98;100491.53;1781744;79;21639;-58
2021/06/25 06:53:50;;;;;;;16.85;7.45;;;;;;;29.97;58.39;100486.27;1768948;80;21215;-57
2021/06/25 06:56:56;;;;;;;13.18;7.53;;;;;;;30.19;58.27;100491.61;1787732;79;21346;-57
2021/06/25 07:00:01;;;;;;;11.25;6.75;;;;;;;30.36;57.79;100497.65;1803485;79;21363;-57
2021/06/25 07:03:08;;;;;;;11.68;6.30;;;;;;;30.49;56.71;100496.88;1804074;79;21216;-58
2021/06/25 07:06:14;;;;;;;10.08;6.12;;;;;;;30.55;55.20;100499.07;1804056;79;21362;-57
2021/06/25 07:09:20;;;;;;;8.73;6.30;;;;;;;30.56;55.18;100501.59;1790851;79;21929;-57
2021/06/25 07:12:26;;;;;;;13.05;5.62;;;;;;;30.61;55.63;100511.42;1770738;81;21848;-55
2021/06/25 07:15:31;;;;;;;9.68;6.25;;;;;;;30.62;54.93;100504.61;1771971;81;21354;-57
2021/06/25 07:18:36;;;;;;;10.93;6.00;;;;;;;30.58;55.00;100504.97;1774328;80;21347;-57
2021/06/25 07:21:42;;;;;;;10.48;5.65;;;;;;;30.56;54.84;100500.18;1754287;82;21429;-56
2021/06/25 07:24:47;;;;;;;14.78;6.35;;;;;;;30.60;54.91;100504.06;1753789;82;21330;-56
2021/06/25 07:27:53;;;;;;;13.72;6.05;;;;;;;30.70;55.18;100495.19;1775117;79;21331;-58
2021/06/25 07:31:02;;;;;;;10.48;5.62;;;;;;;30.86;54.77;100500.91;1784119;80;21271;-58
2021/06/25 07:34:07;;;;;;;12.28;5.97;;;;;;;30.91;54.32;100497.41;1753440;82;21239;-58
2021/06/25 07:37:13;;;;;;;12.03;6.05;;;;;;;31.00;54.28;100498.98;1753505;82;21381;-57
2021/06/25 07:40:20;;;;;;;13.30;6.75;;;;;;;31.07;52.82;100483.29;1753353;82;21271;-58
2021/06/25 07:43:25;;;;;;;20.62;7.80;;;;;;;31.07;52.83;100487.53;1753143;81;21220;-59
2021/06/25 07:46:31;;;;;;;22.82;7.80;;;;;;;31.10;53.09;100496.81;1738497;82;21210;-58
2021/06/25 07:49:36;;;;;;;15.48;6.45;;;;;;;31.09;53.94;100492.88;1748059;81;21185;-57
2021/06/25 07:52:42;;;;;;;17.12;6.10;;;;;;;31.14;54.01;100491.39;1748681;82;21205;-57
2021/06/25 07:55:48;;;;;;;14.85;6.67;;;;;;;31.17;54.41;100490.20;1744729;81;21237;-57
2021/06/25 07:58:55;;;;;;;17.32;6.90;;;;;;;31.26;54.50;100487.48;1747767;82;21201;-57
2021/06/25 08:02:00;;;;;;;17.07;5.95;;;;;;;31.36;54.68;100484.52;1747941;81;21769;-59
2021/06/25 08:05:05;;;;;;;13.38;6.72;;;;;;;31.46;54.53;100485.16;1727457;81;21228;-58
2021/06/25 08:08:10;;;;;;;16.20;5.75;;;;;;;31.54;53.54;100477.97;1717887;83;21304;-58
2021/06/25 08:11:16;;;;;;;14.55;6.00;;;;;;;31.58;52.76;100477.59;1747875;82;21311;-59
2021/06/25 08:14:21;;;;;;;12.98;6.30;;;;;;;31.63;53.21;100481.75;1748841;81;21212;-57
2021/06/25 08:17:27;;;;;;;8.65;5.58;;;;;;;31.77;52.87;100479.77;1748283;82;21348;-57
2021/06/25 08:20:33;;;;;;;12.43;6.15;;;;;;;31.98;52.17;100483.91;1749067;80;21360;-57
2021/06/25 08:23:40;;;;;;;11.85;5.55;;;;;;;32.13;52.32;100484.17;1749214;82;21357;-54
2021/06/25 08:26:46;;;;;;;11.03;5.50;;;;;;;32.26;51.11;100478.48;1748887;80;21379;-54
2021/06/25 08:29:55;;;;;;;11.03;5.28;;;;;;;32.31;49.89;100485.46;1736355;82;21222;-54
2021/06/25 08:33:00;;;;;;;9.03;4.50;;;;;;;32.34;50.79;100479.72;1717095;83;21415;-54
2021/06/25 08:36:07;;;;;;;15.90;6.70;;;;;;;32.44;50.00;100483.79;1748034;82;21366;-55
2021/06/25 08:39:12;;;;;;;8.38;4.70;;;;;;;32.47;48.54;100475.49;1735074;82;21216;-55
2021/06/25 08:42:18;;;;;;;10.30;4.60;;;;;;;32.48;47.93;100477.16;1738763;82;21248;-54
2021/06/25 08:45:25;;;;;;;7.03;4.90;;;;;;;32.43;46.63;100470.19;1748484;80;21196;-53
2021/06/25 08:48:33;;;;;;;7.03;4.55;;;;;;;32.47;47.18;100471.24;1760676;80;21232;-54
2021/06/25 08:51:39;;;;;;;7.15;4.80;;;;;;;32.50;46.23;100466.92;1718752;83;21381;-54
2021/06/25 08:54:44;;;;;;;7.00;4.47;;;;;;;32.53;46.21;100468.55;1717467;83;21294;-55
2021/06/25 08:57:49;;;;;;;9.65;5.00;;;;;;;32.54;45.98;100459.47;1718313;83;21361;-54
2021/06/25 09:00:55;;;;;;;9.08;4.53;;;;;;;32.54;45.99;100457.45;1688894;84;21308;-53
2021/06/25 09:04:03;;;;;;;8.55;4.00;;;;;;;32.59;46.59;100457.91;1722491;82;21253;-53
2021/06/25 09:07:12;;;;;;;14.33;5.20;;;;;;;32.67;46.05;100452.33;1745212;82;21766;-55
2021/06/25 09:10:20;;;;;;;15.80;5.35;;;;;;;32.76;45.83;100448.98;1687226;84;21278;-56
2021/06/25 09:13:26;;;;;;;13.13;4.83;;;;;;;32.84;44.83;100443.14;1704564;84;21248;-55
2021/06/25 09:16:36;;;;;;;10.25;4.45;;;;;;;32.91;45.73;100440.70;1701807;82;21204;-56
2021/06/25 09:19:45;;;;;;;11.15;4.92;;;;;;;32.94;44.48;100433.81;1728879;82;21208;-55
2021/06/25 09:22:58;;;;;;;12.18;4.75;;;;;;;32.97;44.87;100432.31;1702909;83;21864;-56
2021/06/25 09:26:07;;;;;;;13.22;4.53;;;;;;;33.01;45.12;100432.80;1722404;83;21753;-54
2021/06/25 09:29:23;;;;;;;6.92;4.22;;;;;;;33.04;44.01;100432.14;1714700;83;21320;-54
2021/06/25 09:32:29;;;;;;;6.87;4.08;;;;;;;33.08;44.35;100430.32;1723161;83;21375;-55
2021/06/25 09:35:34;;;;;;;7.55;4.25;;;;;;;33.18;43.79;100417.30;1715128;83;21243;-55
2021/06/25 09:38:41;;;;;;;9.83;3.60;;;;;;;33.26;43.90;100416.52;1705409;84;21429;-55
2021/06/25 09:41:53;;;;;;;15.13;4.20;;;;;;;33.37;43.60;100422.17;1689242;83;22011;-55
2021/06/25 09:45:09;;;;;;;16.87;3.80;;;;;;;33.49;41.54;100409.39;1718431;82;21279;-55
2021/06/25 09:48:15;;;;;;;7.30;3.30;;;;;;;33.58;40.74;100408.27;1737180;82;21218;-56
2021/06/25 09:51:19;;;;;;;9.38;3.83;;;;;;;33.67;38.75;100417.66;1749757;82;21273;-55
2021/06/25 09:54:25;;;;;;;11.90;4.12;;;;;;;33.74;38.65;100402.98;1750425;82;21359;-53
2021/06/25 09:57:31;;;;;;;11.97;4.80;;;;;;;33.78;38.24;100408.25;1749750;82;21229;-55
2021/06/25 10:04:21;;;;;;;8.95;3.37;;;;;;;33.93;37.74;100412.11;1783431;80;21333;-54
2021/06/25 10:07:38;;;;;;;4.72;2.92;;;;;;;34.01;36.22;100399.93;1786147;80;21179;-53
2021/06/25 10:10:44;;;;;;;7.80;3.33;;;;;;;34.04;35.72;100403.52;1785393;80;21192;-54
2021/06/25 10:13:51;;;;;;;7.72;3.75;;;;;;;34.08;35.92;100401.69;1786664;80;21195;-58
2021/06/25 10:16:58;;;;;;;8.13;3.40;;;;;;;34.15;36.33;100406.30;1773009;80;21208;-58
2021/06/25 10:20:15;;;;;;;8.35;3.25;;;;;;;34.22;36.22;100405.25;1768144;79;21733;-59
2021/06/25 10:23:20;;;;;;;8.88;3.50;;;;;;;34.36;36.73;100398.83;1785976;80;21211;-58
2021/06/25 10:26:25;;;;;;;8.15;3.37;;;;;;;34.45;35.80;100399.69;1784239;79;21283;-61
2021/06/25 10:29:31;;;;;;;9.10;3.20;;;;;;;34.52;35.60;100402.89;1772737;80;21722;-60
2021/06/25 10:32:37;;;;;;;7.92;3.35;;;;;;;34.56;35.47;100398.19;1773133;80;21351;-58
2021/06/25 10:35:42;;;;;;;9.58;3.02;;;;;;;34.64;34.31;100398.78;1777799;79;21266;-59
2021/06/25 10:38:47;;;;;;;10.45;3.10;;;;;;;34.73;34.04;100398.18;1776385;80;21717;-59
2021/06/25 10:41:58;;;;;;;11.55;3.50;;;;;;;34.85;34.70;100390.39;1786835;79;21219;-61
2021/06/25 10:45:02;;;;;;;9.10;2.98;;;;;;;34.95;33.46;100380.94;1786100;80;21233;-59
2021/06/25 10:48:08;;;;;;;8.70;3.20;;;;;;;35.05;34.63;100381.17;1758236;80;21361;-59
2021/06/25 10:51:38;;;;;;;9.78;3.42;;;;;;;35.18;35.38;100372.45;1784041;80;21235;-59
2021/06/25 10:54:43;;;;;;;7.85;3.55;;;;;;;35.34;34.98;100369.88;1784126;80;21756;-58
2021/06/25 10:58:02;;;;;;;5.10;2.95;;;;;;;35.49;34.00;100373.03;1730610;82;21206;-55
2021/06/25 11:01:08;;;;;;;11.18;3.15;;;;;;;35.57;31.76;100367.89;1753288;82;21433;-56
2021/06/25 11:04:18;;;;;;;6.78;2.98;;;;;;;35.58;33.35;100372.43;1753127;82;21752;-55
2021/06/25 11:07:24;;;;;;;9.28;2.92;;;;;;;35.68;34.04;100370.60;1753330;82;21274;-55
2021/06/25 11:10:31;;;;;;;12.15;3.22;;;;;;;35.76;33.66;100377.42;1772065;80;21442;-55
2021/06/25 11:13:38;;;;;;;13.83;2.90;;;;;;;35.80;33.11;100377.00;1748920;82;21362;-57
2021/06/25 11:16:44;;;;;;;10.55;2.72;;;;;;;35.79;32.11;100366.19;1763101;81;21363;-56
2021/06/25 11:19:50;;;;;;;7.03;2.85;;;;;;;35.82;31.77;100376.89;1763330;81;21386;-59
2021/06/25 11:23:14;;;;;;;5.95;2.92;;;;;;;35.82;32.03;100373.23;1763128;81;21695;-60
2021/06/25 11:26:29;;;;;;;8.75;3.08;;;;;;;35.89;33.01;100381.51;1764970;81;21860;-56
2021/06/25 11:29:53;;;;;;;7.30;3.55;;;;;;;35.98;32.67;100372.92;1753600;82;21325;-57
2021/06/25 11:32:58;;;;;;;5.00;3.85;;;;;;;36.01;33.47;100372.23;1786019;80;21880;-59
2021/06/25 11:36:22;;;;;;;6.72;4.30;;;;;;;36.03;35.06;100374.97;1778001;80;21209;-59
2021/06/25 11:39:44;;;;;;;;;;;;;;;36.08;35.85;100366.80;1724733;83;21768;-60
2021/06/25 11:42:49;;;;;;;9.80;3.98;;;;;;;36.14;35.79;100364.83;1751463;80;20214;-60
2021/06/25 11:46:00;;;;;;;4.70;3.70;;;;;;;36.08;34.43;100364.79;1782889;80;21226;-59
2021/06/25 11:49:05;;;;;;;11.85;4.58;;;;;;;35.94;34.16;100355.66;1751457;80;21216;-60
2021/06/25 11:52:17;;;;;;;9.85;4.12;;;;;;;35.87;36.18;100358.20;1763671;81;21196;-62
2021/06/25 11:55:22;;;;;;;7.75;3.65;;;;;;;35.86;37.22;100356.55;1765241;81;21418;-57
2021/06/25 11:58:29;;;;;;;9.28;4.20;;;;;;;35.91;36.29;100350.66;1761116;81;21415;-59
2021/06/25 12:01:35;;;;;;;9.55;4.42;;;;;;;35.93;36.25;100346.03;1737876;82;21402;-58
2021/06/25 12:04:51;;;;;;;8.43;4.03;;;;;;;35.99;36.60;100357.47;1733332;82;21211;-58
2021/06/25 12:08:12;;;;;;;10.88;4.25;;;;;;;36.06;36.17;100349.19;1733436;82;21223;-58
2021/06/25 12:11:18;;;;;;;6.45;3.77;;;;;;;36.05;35.73;100348.38;1733750;82;21219;-59
2021/06/25 12:14:24;;;;;;;13.15;4.10;;;;;;;35.94;35.64;100344.84;1755629;81;21280;-59
2021/06/25 12:17:32;;;;;;;8.65;3.50;;;;;;;35.87;35.10;100336.83;1764247;81;21181;-59
2021/06/25 12:20:39;;;;;;;7.00;3.40;;;;;;;35.79;35.79;100334.84;1765129;81;21394;-59
2021/06/25 12:23:45;;;;;;;5.80;3.60;;;;;;;35.75;35.96;100335.30;1765206;81;21817;-58
2021/06/25 12:26:51;;;;;;;9.70;3.58;;;;;;;35.75;35.58;100332.45;1765159;81;21379;-58
2021/06/25 12:29:59;;;;;;;8.68;3.90;;;;;;;35.74;34.63;100336.45;1765099;81;21756;-58
2021/06/25 12:33:13;;;;;;;8.18;3.80;;;;;;;35.69;34.46;100336.67;1750259;81;21418;-58
2021/06/25 12:36:20;;;;;;;6.05;3.80;;;;;;;35.69;34.80;100333.83;1765026;81;21193;-59
2021/06/25 12:39:26;;;;;;;11.73;3.55;;;;;;;35.67;34.27;100330.48;1765261;81;21363;-58
2021/06/25 12:42:33;;;;;;;9.18;3.98;;;;;;;35.68;35.03;100325.02;1764914;81;21209;-58
2021/06/25 12:45:53;;;;;;;12.68;3.85;;;;;;;35.67;35.27;100327.63;1757692;81;21429;-59
2021/06/25 12:49:03;;;;;;;10.48;4.22;;;;;;;35.69;35.58;100325.28;1734530;82;21358;-59
2021/06/25 12:52:09;;;;;;;7.60;3.52;;;;;;;35.66;34.38;100323.09;1745012;82;21715;-59
2021/06/25 12:55:15;;;;;;;8.50;3.40;;;;;;;35.63;34.59;100321.55;1747764;82;21229;-59
2021/06/25 12:58:22;;;;;;;5.92;3.40;;;;;;;35.61;35.58;100311.91;1748246;82;21272;-59
2021/06/25 13:01:27;;;;;;;6.87;3.47;;;;;;;35.67;36.18;100303.98;1748450;82;21245;-60
2021/06/25 13:04:39;;;;;;;8.05;3.52;;;;;;;35.71;35.17;100300.10;1748867;80;21244;-58
2021/06/25 13:07:45;;;;;;;6.70;3.40;;;;;;;35.68;35.21;100297.95;1717783;83;21785;-58
2021/06/25 13:10:52;;;;;;;11.03;3.30;;;;;;;35.66;35.02;100293.78;1745217;80;21201;-58
2021/06/25 13:13:59;;;;;;;5.72;3.35;;;;;;;35.67;36.30;100290.59;1746861;82;21237;-59
2021/06/25 13:17:10;;;;;;;11.03;3.47;;;;;;;35.69;35.57;100285.39;1725860;83;21579;-58
2021/06/25 13:20:29;;;;;;;8.17;3.10;;;;;;;35.65;34.59;100285.81;1716920;83;21363;-59
2021/06/25 13:23:35;;;;;;;7.83;3.17;;;;;;;35.62;35.38;100282.81;1720456;83;22035;-59
2021/06/25 13:27:03;;;;;;;8.23;3.02;;;;;;;35.62;36.17;100282.23;1717377;83;21355;-58
2021/06/25 13:30:08;;;;;;;5.50;2.90;;;;;;;35.61;34.64;100282.00;1733128;82;21260;-58
2021/06/25 13:33:19;;;;;;;6.90;2.65;;;;;;;35.59;33.92;100277.23;1716842;83;21228;-58
2021/06/25 13:36:26;;;;;;;6.72;3.55;;;;;;;35.57;33.95;100271.03;1731483;82;21281;-58
2021/06/25 13:39:33;;;;;;;6.03;3.60;;;;;;;35.58;34.45;100272.72;1742698;82;21253;-59
2021/06/25 13:42:38;;;;;;;9.70;3.40;;;;;;;35.57;33.81;100259.64;1744454;82;21212;-58
2021/06/25 13:45:44;;;;;;;10.53;3.65;;;;;;;35.54;34.47;100259.48;1732170;81;21231;-58
2021/06/25 13:48:51;;;;;;;8.95;3.77;;;;;;;35.59;34.48;100259.30;1742964;82;21722;-58
2021/06/25 13:51:57;;;;;;;6.10;3.47;;;;;;;35.57;34.49;100255.94;1758193;80;21232;-58
2021/06/25 13:55:25;;;;;;;10.68;3.60;;;;;;;35.46;34.52;100251.25;1765215;81;21876;-58
2021/06/25 13:58:30;;;;;;;9.93;3.47;;;;;;;35.39;36.00;100242.42;1752110;81;21207;-59
2021/06/25 14:01:42;;;;;;;8.65;3.12;;;;;;;35.39;36.06;100245.27;1710428;84;21373;-59
2021/06/25 14:04:47;;;;;;;9.30;2.92;;;;;;;35.43;35.79;100249.66;1716813;82;21196;-58
2021/06/25 14:08:08;;;;;;;9.03;3.37;;;;;;;35.42;33.83;100250.28;1728045;83;21199;-58
2021/06/25 14:11:22;;;;;;;8.68;2.98;;;;;;;35.41;33.91;100247.16;1737110;82;21582;-58
2021/06/25 14:14:28;;;;;;;7.22;3.00;;;;;;;35.47;34.19;100242.97;1732661;83;21322;-59
2021/06/25 14:17:40;;;;;;;8.18;3.02;;;;;;;35.56;35.36;100240.05;1735412;82;21920;-59
2021/06/25 14:20:44;;;;;;;;;;;;;;;35.64;35.42;100240.58;1766502;81;21813;-58
2021/06/25 14:23:48;;;;;;;9.83;3.17;;;;;;;35.67;34.48;100232.18;1764118;81;20294;-58
2021/06/25 14:26:54;;;;;;;7.42;2.70;;;;;;;35.69;34.37;100236.95;1763758;81;21762;-58
2021/06/25 14:30:01;;;;;;;15.28;3.60;;;;;;;35.76;35.06;100228.67;1733365;82;21240;-58
2021/06/25 14:33:06;;;;;;;13.22;3.00;;;;;;;35.84;33.94;100237.78;1732823;82;21244;-59
2021/06/25 14:36:10;;;;;;;15.45;3.35;;;;;;;35.95;34.09;100229.05;1733086;82;21270;-58
2021/06/25 14:39:15;;;;;;;10.30;2.87;;;;;;;35.97;34.48;100229.55;1733142;82;21239;-59
2021/06/25 14:42:21;;;;;;;5.30;3.35;;;;;;;35.93;35.22;100221.44;1733075;82;21208;-58